createdAt,value
2022-08-03T00:02:27.400Z,19.05
2022-08-03T00:05:00.170Z,19.23
2022-08-03T00:07:33.146Z,20.27
2022-08-03T00:10:06.564Z,19.73
2022-08-03T00:12:40.013Z,21.57
2022-08-03T00:15:16.396Z,20.60
2022-08-03T00:17:52.472Z,21.93
2022-08-03T00:20:25.433Z,20.23
2022-08-03T00:22:58.280Z,19.25
2022-08-03T00:25:31.465Z,20.48
2022-08-03T00:28:08.120Z,20.72
2022-08-03T00:30:41.481Z,19.17
2022-08-03T00:33:14.836Z,21.80
2022-08-03T00:35:50.755Z,20.27
2022-08-03T00:38:22.943Z,21.48
2022-08-03T00:40:56.770Z,21.85
2022-08-03T00:43:29.604Z,24.82
2022-08-03T00:46:02.405Z,21.70
2022-08-03T00:48:35.556Z,22.75
2022-08-03T00:51:08.747Z,21.97
2022-08-03T00:53:42.218Z,22.98
2022-08-03T00:56:18.954Z,22.03
2022-08-03T00:58:52.051Z,21.90
2022-08-03T01:01:25.103Z,21.27
2022-08-03T01:03:57.870Z,23.45
2022-08-03T01:06:41.274Z,21.10
2022-08-03T01:09:51.083Z,22.17
2022-08-03T01:12:44.161Z,22.82
2022-08-03T01:15:24.428Z,20.52
2022-08-03T01:18:05.022Z,20.00
2022-08-03T01:20:42.012Z,19.05
2022-08-03T01:24:02.101Z,19.67
2022-08-03T01:26:51.368Z,18.55
2022-08-03T01:29:54.666Z,17.62
2022-08-03T01:33:03.059Z,19.90
2022-08-03T01:35:48.853Z,18.92
2022-08-03T01:38:32.624Z,18.95
2022-08-03T01:41:12.400Z,18.48
2022-08-03T01:44:26.463Z,19.45
2022-08-03T01:46:24.337Z,18.80
2022-08-03T01:48:58.019Z,18.27
2022-08-03T01:51:56.607Z,17.92
2022-08-03T01:54:07.347Z,17.65
2022-08-03T01:56:43.255Z,15.78
2022-08-03T01:59:17.534Z,16.52
2022-08-03T02:02:32.023Z,16.30
2022-08-03T02:04:27.063Z,16.32
2022-08-03T02:07:03.354Z,14.93
2022-08-03T02:09:38.752Z,14.90
2022-08-03T02:12:12.612Z,15.03
2022-08-03T02:14:46.672Z,14.33
2022-08-03T02:17:19.489Z,12.98
2022-08-03T02:19:55.104Z,13.68
2022-08-03T02:22:28.204Z,13.40
2022-08-03T02:25:01.220Z,13.48
2022-08-03T02:27:38.349Z,14.35
2022-08-03T02:30:11.862Z,13.88
2022-08-03T02:32:47.919Z,13.98
2022-08-03T02:35:22.532Z,13.55
2022-08-03T02:37:59.836Z,12.98
2022-08-03T02:40:34.275Z,11.80
2022-08-03T02:48:25.897Z,13.78
2022-08-03T02:51:00.720Z,14.70
2022-08-03T02:53:34.587Z,15.50
2022-08-03T02:56:08.259Z,16.20
2022-08-03T02:58:43.985Z,15.50
2022-08-03T03:01:17.369Z,15.48
2022-08-03T03:03:52.064Z,15.25
2022-08-03T03:06:27.394Z,16.37
2022-08-03T03:09:02.265Z,13.10
2022-08-03T03:11:35.580Z,14.25
2022-08-03T03:14:10.815Z,13.40
2022-08-03T03:16:44.688Z,13.50
2022-08-03T03:19:19.742Z,15.83
2022-08-03T03:21:53.108Z,16.43
2022-08-03T03:24:26.217Z,18.73
2022-08-03T03:27:00.571Z,18.67
2022-08-03T03:29:36.522Z,18.95
2022-08-03T03:32:09.811Z,17.52
2022-08-03T03:34:44.299Z,18.82
2022-08-03T03:37:17.315Z,18.17
2022-08-03T03:39:50.881Z,18.02
2022-08-03T03:42:24.072Z,17.40
2022-08-03T03:44:57.039Z,18.25
2022-08-03T03:47:32.712Z,16.12
2022-08-03T03:50:11.206Z,16.20
2022-08-03T03:52:44.389Z,15.68
2022-08-03T03:55:19.973Z,15.32
2022-08-03T03:57:56.275Z,14.30
2022-08-03T04:00:29.031Z,12.68
2022-08-03T04:03:02.121Z,13.65
2022-08-03T04:05:52.587Z,12.50
2022-08-03T04:08:43.967Z,12.73
2022-08-03T04:11:30.096Z,12.58
2022-08-03T04:14:18.535Z,13.38
2022-08-03T04:17:01.171Z,12.13
2022-08-03T04:19:43.901Z,11.78
2022-08-03T04:22:20.987Z,11.45
2022-08-03T04:24:58.461Z,11.93
2022-08-03T04:27:35.314Z,14.43
2022-08-03T04:30:10.480Z,14.73
2022-08-03T04:32:46.039Z,15.10
2022-08-03T04:35:19.991Z,15.70
2022-08-03T04:37:54.504Z,16.97
2022-08-03T04:40:39.796Z,17.05
2022-08-03T04:43:14.289Z,17.37
2022-08-03T04:45:52.818Z,17.57
2022-08-03T04:48:25.909Z,18.50
2022-08-03T04:51:00.744Z,19.10
2022-08-03T04:53:33.880Z,18.57
2022-08-03T04:56:07.953Z,19.98
2022-08-03T04:58:40.781Z,18.52
2022-08-03T05:01:13.608Z,19.98
2022-08-03T05:03:46.585Z,20.75
2022-08-03T05:06:19.463Z,21.40
2022-08-03T05:08:53.929Z,20.92
2022-08-03T05:11:27.004Z,21.15
2022-08-03T05:13:59.865Z,19.57
2022-08-03T05:16:33.207Z,19.27
2022-08-03T05:19:06.074Z,19.02
2022-08-03T05:21:41.705Z,18.40
2022-08-03T05:24:14.596Z,18.85
2022-08-03T05:26:48.988Z,18.15
2022-08-03T05:29:21.827Z,18.67
2022-08-03T05:31:54.789Z,19.02
2022-08-03T05:34:27.777Z,18.07
2022-08-03T05:37:00.608Z,19.05
2022-08-03T05:39:33.408Z,20.32
2022-08-03T05:42:06.432Z,19.02
2022-08-03T05:44:39.368Z,20.65
2022-08-03T05:47:12.331Z,20.15
2022-08-03T05:49:45.303Z,18.75
2022-08-03T05:52:18.920Z,18.80
2022-08-03T05:54:56.187Z,18.92
2022-08-03T05:57:27.274Z,19.37
2022-08-03T06:00:00.317Z,18.27
2022-08-03T06:02:35.358Z,17.30
2022-08-03T06:05:09.273Z,18.40
2022-08-03T06:07:43.047Z,17.48
2022-08-03T06:10:37.095Z,15.88
2022-08-03T06:12:51.501Z,14.68
2022-08-03T06:15:25.990Z,15.03
2022-08-03T06:18:01.852Z,14.93
2022-08-03T06:20:33.369Z,13.83
2022-08-03T06:23:06.222Z,16.70
2022-08-03T06:28:35.171Z,14.95
2022-08-03T06:30:48.641Z,13.05
2022-08-03T06:35:54.966Z,14.00
2022-08-03T06:38:27.794Z,13.95
2022-08-03T06:41:00.495Z,11.65
2022-08-03T06:43:35.898Z,12.47
2022-08-03T06:46:08.879Z,11.33
2022-08-03T06:48:41.774Z,10.98
2022-08-03T06:51:15.364Z,12.07
2022-08-03T06:53:48.321Z,12.00
2022-08-03T06:56:21.313Z,12.25
2022-08-03T06:58:54.196Z,11.57
2022-08-03T07:01:27.072Z,12.60
2022-08-03T07:04:00.926Z,12.15
2022-08-03T07:09:05.885Z,12.85
2022-08-03T07:11:38.817Z,12.83
2022-08-03T07:16:44.944Z,12.65
2022-08-03T07:19:17.981Z,12.55
2022-08-03T07:21:50.807Z,11.20
2022-08-03T07:24:25.415Z,11.03
2022-08-03T07:26:59.838Z,10.40
2022-08-03T07:29:34.812Z,10.43
2022-08-03T07:32:07.958Z,12.05
2022-08-03T07:34:41.351Z,11.15
2022-08-03T07:37:14.138Z,10.75
2022-08-03T07:39:46.918Z,15.15
2022-08-03T07:42:19.864Z,11.63
2022-08-03T07:44:52.804Z,11.57
2022-08-03T07:47:35.693Z,11.78
2022-08-03T07:50:03.678Z,11.88
2022-08-03T07:52:50.031Z,13.13
2022-08-03T07:55:25.773Z,11.12
2022-08-03T07:58:14.746Z,11.50
2022-08-03T08:00:47.928Z,11.95
2022-08-03T08:03:22.147Z,12.57
2022-08-03T08:05:55.515Z,10.95
2022-08-03T08:08:28.530Z,11.33
2022-08-03T08:11:01.416Z,11.60
2022-08-03T08:13:34.966Z,10.90
2022-08-03T08:16:08.432Z,11.95
2022-08-03T08:18:41.573Z,11.28
2022-08-03T08:21:14.581Z,10.75
2022-08-03T08:23:55.602Z,10.60
2022-08-03T08:26:21.915Z,10.55
2022-08-03T08:28:55.095Z,9.85
2022-08-03T08:31:28.306Z,10.65
2022-08-03T08:34:04.625Z,10.87
2022-08-03T08:36:38.444Z,10.82
2022-08-03T08:39:12.428Z,9.97
2022-08-03T08:41:49.614Z,10.25
2022-08-03T08:44:21.772Z,10.85
2022-08-03T08:46:56.101Z,10.78
2022-08-03T08:49:29.622Z,10.72
2022-08-03T08:52:04.408Z,10.95
2022-08-03T08:54:41.802Z,10.05
2022-08-03T08:57:33.624Z,10.40
2022-08-03T08:59:52.378Z,7.65
2022-08-03T09:02:26.513Z,7.60
2022-08-03T09:05:04.029Z,8.90
2022-08-03T09:07:35.514Z,8.80
2022-08-03T09:10:13.296Z,8.53
2022-08-03T09:12:48.381Z,8.45
2022-08-03T09:15:27.397Z,8.18
2022-08-03T09:18:02.922Z,8.78
2022-08-03T09:20:37.512Z,7.17
2022-08-03T09:23:51.882Z,9.15
2022-08-03T09:25:46.796Z,8.08
2022-08-03T09:28:57.903Z,8.95
2022-08-03T09:31:02.361Z,8.18
2022-08-03T09:33:36.102Z,7.87
2022-08-03T09:36:09.435Z,9.70
2022-08-03T09:38:42.299Z,14.43
2022-08-03T09:41:20.140Z,10.25
2022-08-03T09:43:54.986Z,7.87
2022-08-03T09:46:29.476Z,10.08
2022-08-03T09:49:15.040Z,8.28
2022-08-03T09:52:31.329Z,8.90
2022-08-03T09:54:34.438Z,8.93
2022-08-03T09:57:07.583Z,7.65
2022-08-03T09:59:41.628Z,8.13
2022-08-03T10:02:29.565Z,7.83
2022-08-03T10:05:02.520Z,7.60
2022-08-03T10:10:29.080Z,9.88
2022-08-03T10:12:54.489Z,11.25
2022-08-03T10:16:23.840Z,7.75
2022-08-03T10:18:03.095Z,7.87
2022-08-03T10:20:43.258Z,8.85
2022-08-03T10:23:18.439Z,7.97
2022-08-03T10:25:55.323Z,7.33
2022-08-03T10:28:29.614Z,11.33
2022-08-03T10:31:02.817Z,8.60
2022-08-03T10:33:51.416Z,9.00
2022-08-03T10:36:16.603Z,11.00
2022-08-03T10:38:56.759Z,8.18
2022-08-03T10:41:33.481Z,9.35
2022-08-03T10:44:14.556Z,8.15
2022-08-03T10:46:50.647Z,8.60
2022-08-03T10:49:34.301Z,8.55
2022-08-03T10:51:58.896Z,8.58
2022-08-03T10:55:03.332Z,7.60
2022-08-03T10:57:58.902Z,10.35
2022-08-03T11:00:35.032Z,7.80
2022-08-03T11:03:11.727Z,5.62
2022-08-03T11:05:48.455Z,5.70
2022-08-03T11:08:31.773Z,5.92
2022-08-03T11:11:25.171Z,7.35
2022-08-03T11:14:23.018Z,6.50
2022-08-03T11:17:14.111Z,5.62
2022-08-03T11:19:57.432Z,5.95
2022-08-03T11:22:28.498Z,6.10
2022-08-03T11:25:01.980Z,5.58
2022-08-03T11:27:36.526Z,6.00
2022-08-03T11:30:28.617Z,9.50
2022-08-03T11:33:02.232Z,6.83
2022-08-03T11:35:36.948Z,5.83
2022-08-03T11:38:11.081Z,5.20
2022-08-03T11:40:48.044Z,5.35
2022-08-03T11:43:39.502Z,6.05
2022-08-03T11:46:16.427Z,5.85
2022-08-03T11:48:52.502Z,6.17
2022-08-03T11:51:28.209Z,6.00
2022-08-03T11:54:07.487Z,6.40
2022-08-03T11:56:50.024Z,9.10
2022-08-03T11:59:35.058Z,7.20
2022-08-03T12:02:16.717Z,7.03
2022-08-03T12:05:01.704Z,6.87
2022-08-03T12:08:03.273Z,7.35
2022-08-03T12:10:15.842Z,6.55
2022-08-03T12:12:49.410Z,7.62
2022-08-03T12:15:33.959Z,7.05
2022-08-03T12:18:18.648Z,7.35
2022-08-03T12:20:54.598Z,7.03
2022-08-03T12:23:28.988Z,7.78
2022-08-03T12:26:11.239Z,7.22
2022-08-03T12:28:51.292Z,7.22
2022-08-03T12:31:25.113Z,7.03
2022-08-03T12:36:39.547Z,7.03
2022-08-03T12:39:12.575Z,6.87
2022-08-03T12:41:45.394Z,6.92
2022-08-03T12:44:18.305Z,7.30
2022-08-03T12:46:55.813Z,6.90
2022-08-03T12:49:30.432Z,7.05
2022-08-03T12:52:07.406Z,6.97
2022-08-03T12:54:39.264Z,7.35
2022-08-03T12:59:53.031Z,5.92
2022-08-03T13:02:28.033Z,6.90
2022-08-03T13:05:00.988Z,6.70
2022-08-03T13:07:46.305Z,6.35
2022-08-03T13:10:35.432Z,6.65
2022-08-03T13:13:09.131Z,7.90
2022-08-03T13:15:47.813Z,6.70
2022-08-03T13:18:17.270Z,7.05
2022-08-03T13:20:50.660Z,6.15
2022-08-03T13:23:23.776Z,6.80
2022-08-03T13:25:56.650Z,6.87
2022-08-03T13:28:29.503Z,7.30
2022-08-03T13:31:02.787Z,6.30
2022-08-03T13:33:39.314Z,6.87
2022-08-03T13:36:12.244Z,7.60
2022-08-03T13:38:45.491Z,7.22
2022-08-03T13:41:18.637Z,6.80
2022-08-03T13:44:12.038Z,8.78
2022-08-03T13:46:28.098Z,6.80
2022-08-03T13:49:01.019Z,6.73
2022-08-03T13:51:34.540Z,10.07
2022-08-03T13:54:07.637Z,7.35
2022-08-03T13:56:40.791Z,7.35
2022-08-03T13:59:13.811Z,7.93
2022-08-03T14:01:55.255Z,7.55
2022-08-03T14:04:22.785Z,8.40
2022-08-03T14:06:55.775Z,8.18
2022-08-03T14:09:29.480Z,8.23
2022-08-03T14:12:08.378Z,8.55
2022-08-03T14:14:37.918Z,8.95
2022-08-03T14:17:10.837Z,9.23
2022-08-03T14:19:53.218Z,10.00
2022-08-03T14:22:19.759Z,9.58
2022-08-03T14:24:52.603Z,10.28
2022-08-03T14:27:26.054Z,10.68
2022-08-03T14:30:00.353Z,10.25
2022-08-03T14:32:33.610Z,11.28
2022-08-03T14:35:07.335Z,9.30
2022-08-03T14:37:40.618Z,8.10
2022-08-03T14:40:13.552Z,9.00
2022-08-03T14:42:46.759Z,6.50
2022-08-03T14:45:20.757Z,5.73
2022-08-03T14:50:24.947Z,6.15
2022-08-03T14:50:42.910Z,7.75
2022-08-03T14:53:06.750Z,6.55
2022-08-03T14:55:50.929Z,8.10
2022-08-03T14:58:21.173Z,7.37
2022-08-03T15:00:49.593Z,7.33
2022-08-03T15:03:25.150Z,7.17
2022-08-03T15:05:59.198Z,6.83
2022-08-03T15:08:33.072Z,6.12
2022-08-03T15:11:06.310Z,6.03
2022-08-03T15:13:39.696Z,5.15
2022-08-03T15:16:12.485Z,6.83
2022-08-03T15:18:45.410Z,7.65
2022-08-03T15:21:46.609Z,7.40
2022-08-03T15:23:53.116Z,8.25
2022-08-03T15:26:30.954Z,7.97
2022-08-03T15:29:01.428Z,7.28
2022-08-03T15:31:34.723Z,6.90
2022-08-03T15:34:07.602Z,7.27
2022-08-03T15:36:40.453Z,9.90
2022-08-03T15:39:13.496Z,7.97
2022-08-03T15:41:46.416Z,6.67
2022-08-03T15:44:22.838Z,8.20
2022-08-03T15:46:55.873Z,7.35
2022-08-03T15:49:28.824Z,7.42
2022-08-03T15:52:01.764Z,7.92
2022-08-03T15:54:34.855Z,7.30
2022-08-03T15:57:08.344Z,7.97
2022-08-03T15:59:41.373Z,8.30
2022-08-03T16:02:14.709Z,7.75
2022-08-03T16:04:47.993Z,7.60
2022-08-03T16:07:22.806Z,7.17
2022-08-03T16:09:56.123Z,8.63
2022-08-03T16:12:29.297Z,7.63
2022-08-03T16:15:02.525Z,7.65
2022-08-03T16:17:35.927Z,7.65
2022-08-03T16:20:29.077Z,11.57
2022-08-03T16:22:50.268Z,9.95
2022-08-03T16:25:23.087Z,7.37
2022-08-03T16:28:07.308Z,8.35
2022-08-03T16:30:30.899Z,7.53
2022-08-03T16:33:05.494Z,7.97
2022-08-03T16:35:38.826Z,7.53
2022-08-03T16:38:16.543Z,10.18
2022-08-03T16:40:47.363Z,8.23
2022-08-03T16:43:22.692Z,8.53
2022-08-03T16:45:55.645Z,7.62
2022-08-03T16:48:28.485Z,7.92
2022-08-03T16:51:01.393Z,8.45
2022-08-03T16:54:05.632Z,8.30
2022-08-03T16:56:10.567Z,8.50
2022-08-03T16:58:44.379Z,9.05
2022-08-03T17:01:21.805Z,8.23
2022-08-03T17:04:02.411Z,7.95
2022-08-03T17:06:33.877Z,9.40
2022-08-03T17:09:10.135Z,8.48
2022-08-03T17:11:47.708Z,9.08
2022-08-03T17:14:28.565Z,9.58
2022-08-03T17:17:06.786Z,9.30
2022-08-03T17:19:42.155Z,8.58
2022-08-03T17:22:21.893Z,8.60
2022-08-03T17:24:55.993Z,8.80
2022-08-03T17:28:49.513Z,9.15
2022-08-03T17:30:09.720Z,8.75
2022-08-03T17:32:56.977Z,13.18
2022-08-03T17:35:21.478Z,10.48
2022-08-03T17:38:03.275Z,9.33
2022-08-03T17:40:29.490Z,10.58
2022-08-03T17:44:16.654Z,10.23
2022-08-03T17:45:52.330Z,11.50
2022-08-03T17:48:18.449Z,11.70
2022-08-03T17:50:55.189Z,11.88
2022-08-03T17:53:33.229Z,9.60
2022-08-03T17:56:42.414Z,9.13
2022-08-03T17:59:13.696Z,9.65
2022-08-03T18:02:29.581Z,9.20
2022-08-03T18:05:16.499Z,9.18
2022-08-03T18:08:00.884Z,9.28
2022-08-03T18:10:29.252Z,10.08
2022-08-03T18:13:13.870Z,9.43
2022-08-03T18:16:02.867Z,9.35
2022-08-03T18:18:43.029Z,8.88
2022-08-03T18:21:16.946Z,9.48
2022-08-03T18:23:52.815Z,8.68
2022-08-03T18:26:26.710Z,9.70
2022-08-03T18:29:00.249Z,8.90
2022-08-03T18:32:02.613Z,9.70
2022-08-03T18:34:19.854Z,9.50
2022-08-03T18:36:48.818Z,8.30
2022-08-03T18:39:21.919Z,7.90
2022-08-03T18:41:54.905Z,8.55
2022-08-03T18:44:52.602Z,8.03
2022-08-03T18:47:23.029Z,13.83
2022-08-03T18:50:12.516Z,10.80
2022-08-03T18:52:57.788Z,8.85
2022-08-03T18:55:36.484Z,8.40
2022-08-03T18:58:19.412Z,7.97
2022-08-03T19:02:00.387Z,7.92
2022-08-03T19:03:56.143Z,7.53
2022-08-03T19:06:31.511Z,7.83
2022-08-03T19:09:13.310Z,7.95
2022-08-03T19:12:14.151Z,8.08
2022-08-03T19:14:31.438Z,8.00
2022-08-03T19:19:47.711Z,8.00
2022-08-03T19:22:22.628Z,7.55
2022-08-03T19:24:58.087Z,8.75
2022-08-03T19:27:34.612Z,8.35
2022-08-03T19:30:21.973Z,8.90
2022-08-03T19:32:48.266Z,8.73
2022-08-03T19:35:51.952Z,8.60
2022-08-03T19:37:55.509Z,8.33
2022-08-03T19:40:33.260Z,10.28
2022-08-03T19:43:11.045Z,8.58
2022-08-03T19:46:04.418Z,9.03
2022-08-03T19:48:24.129Z,8.90
2022-08-03T19:51:00.059Z,9.93
2022-08-03T19:53:37.235Z,11.22
2022-08-03T19:56:12.662Z,12.00
2022-08-03T19:58:45.725Z,12.00
2022-08-03T20:01:21.657Z,12.80
2022-08-03T20:03:55.186Z,13.43
2022-08-03T20:06:28.547Z,12.25
2022-08-03T20:09:01.890Z,12.45
2022-08-03T20:11:45.113Z,12.35
2022-08-03T20:14:13.318Z,12.23
2022-08-03T20:16:49.343Z,11.57
2022-08-03T20:19:23.057Z,12.75
2022-08-03T20:21:56.315Z,12.10
2022-08-03T20:24:35.267Z,13.78
2022-08-03T20:27:10.195Z,12.78
2022-08-03T20:30:07.670Z,14.05
2022-08-03T20:32:24.729Z,14.18
2022-08-03T20:34:58.648Z,13.93
2022-08-03T20:37:31.684Z,14.35
2022-08-03T20:40:07.744Z,14.28
2022-08-03T20:42:40.739Z,13.58
2022-08-03T20:46:00.172Z,14.58
2022-08-03T20:47:50.613Z,16.27
2022-08-03T20:50:24.092Z,17.82
2022-08-03T20:52:58.909Z,20.35
2022-08-03T20:55:53.772Z,20.25
2022-08-03T20:58:07.894Z,20.77
2022-08-03T21:00:42.577Z,23.20
2022-08-03T21:03:16.390Z,24.20
2022-08-03T21:05:53.622Z,22.87
2022-08-03T21:08:27.907Z,25.17
2022-08-03T21:11:01.937Z,25.02
2022-08-03T21:13:01.991Z,8.13
2022-08-03T21:13:59.257Z,25.15
2022-08-03T21:16:34.030Z,27.45
2022-08-03T21:19:06.915Z,27.55
2022-08-03T21:21:41.064Z,28.87
2022-08-03T21:26:48.569Z,27.77
2022-08-03T21:29:22.960Z,29.55
2022-08-03T21:31:56.366Z,32.00
2022-08-03T21:34:29.669Z,32.38
2022-08-03T21:37:02.911Z,32.63
2022-08-03T21:39:37.279Z,30.32
2022-08-03T21:42:11.663Z,29.95
2022-08-03T21:44:44.943Z,29.20
2022-08-03T21:47:18.086Z,28.65
2022-08-03T21:50:07.692Z,28.42
2022-08-03T21:52:29.070Z,24.23
2022-08-03T21:55:05.838Z,22.52
2022-08-03T21:57:42.841Z,22.65
2022-08-03T22:00:21.765Z,21.97
2022-08-03T22:03:00.360Z,22.90
2022-08-03T22:05:43.281Z,23.12
2022-08-03T22:08:10.033Z,22.48
2022-08-03T22:10:45.608Z,21.75
2022-08-03T22:13:43.603Z,21.45
2022-08-03T22:15:56.511Z,22.40
2022-08-03T22:18:29.719Z,20.37
2022-08-03T22:21:03.245Z,21.33
2022-08-03T22:23:41.108Z,21.05
2022-08-03T22:26:18.065Z,17.05
2022-08-03T22:28:52.892Z,19.45
2022-08-03T22:31:30.905Z,19.27
2022-08-03T22:34:01.307Z,19.07
2022-08-03T22:36:34.826Z,17.35
2022-08-03T22:39:07.645Z,17.25
2022-08-03T22:41:40.421Z,17.65
2022-08-03T22:44:15.126Z,16.93
2022-08-03T22:46:48.166Z,16.52
2022-08-03T22:49:22.008Z,15.43
2022-08-03T22:51:55.404Z,15.70
2022-08-03T22:54:28.223Z,16.17
2022-08-03T22:57:01.591Z,15.85
2022-08-03T22:59:42.116Z,15.00
2022-08-03T23:02:21.773Z,14.38
2022-08-03T23:04:58.049Z,15.48
2022-08-03T23:07:34.685Z,15.63
2022-08-03T23:10:14.129Z,15.20
2022-08-03T23:12:50.749Z,15.93
2022-08-03T23:15:26.751Z,15.32
2022-08-03T23:18:00.184Z,13.95
2022-08-03T23:20:33.688Z,14.40
2022-08-03T23:23:06.631Z,13.72
2022-08-03T23:25:41.594Z,14.73
2022-08-03T23:28:19.313Z,13.97
2022-08-03T23:30:52.973Z,14.03
2022-08-03T23:33:25.842Z,14.10
2022-08-03T23:36:27.717Z,13.83
2022-08-03T23:38:38.368Z,13.85
2022-08-03T23:41:11.856Z,13.75
2022-08-03T23:43:51.817Z,13.58
2022-08-03T23:46:21.115Z,12.07
2022-08-03T23:48:56.533Z,12.37
2022-08-03T23:51:45.575Z,11.63
2022-08-03T23:54:29.186Z,11.75
2022-08-03T23:57:06.596Z,11.53
